createdAt,value
2018-06-01T00:00:46.092Z,23.33
2018-06-01T00:03:12.048Z,23.40
2018-06-01T00:05:37.997Z,23.27
2018-06-01T00:08:03.958Z,23.17
2018-06-01T00:10:29.891Z,23.03
2018-06-01T00:12:55.832Z,22.93
2018-06-01T00:15:21.755Z,23.08
2018-06-01T00:17:47.703Z,23.03
2018-06-01T00:20:13.675Z,23.16
2018-06-01T00:22:39.621Z,23.00
2018-06-01T00:25:05.780Z,22.84
2018-06-01T00:27:31.718Z,23.08
2018-06-01T00:29:57.662Z,23.11
2018-06-01T00:32:23.616Z,23.03
2018-06-01T00:34:49.567Z,23.10
2018-06-01T00:37:15.565Z,23.10
2018-06-01T00:39:41.501Z,22.93
2018-06-01T00:42:07.815Z,22.92
2018-06-01T00:44:33.760Z,22.75
2018-06-01T00:46:59.726Z,22.59
2018-06-01T00:49:25.683Z,22.57
2018-06-01T00:51:51.633Z,22.99
2018-06-01T00:54:17.629Z,22.84
2018-06-01T00:56:43.564Z,22.56
2018-06-01T00:59:09.536Z,22.66
2018-06-01T01:01:35.472Z,22.54
2018-06-01T01:04:01.457Z,22.31
2018-06-01T01:06:27.439Z,22.29
2018-06-01T01:08:53.385Z,22.56
2018-06-01T01:11:19.376Z,22.37
2018-06-01T01:13:45.320Z,22.25
2018-06-01T01:16:11.258Z,22.27
2018-06-01T01:18:37.225Z,22.79
2018-06-01T01:21:03.184Z,22.58
2018-06-01T01:23:29.142Z,22.22
2018-06-01T01:25:55.074Z,22.33
2018-06-01T01:28:21.367Z,22.45
2018-06-01T01:30:47.305Z,22.41
2018-06-01T01:33:13.236Z,22.44
2018-06-01T01:35:39.174Z,22.41
2018-06-01T01:38:05.103Z,22.26
2018-06-01T01:40:31.081Z,22.48
2018-06-01T01:42:57.022Z,22.54
2018-06-01T01:45:22.985Z,22.59
2018-06-01T01:47:48.930Z,22.33
2018-06-01T01:50:14.888Z,22.40
2018-06-01T01:52:40.905Z,22.35
2018-06-01T01:55:06.852Z,22.39
2018-06-01T01:57:32.770Z,22.49
2018-06-01T01:59:58.728Z,22.32
2018-06-01T02:02:24.689Z,22.36
2018-06-01T02:04:50.641Z,22.64
2018-06-01T02:07:16.568Z,22.69
2018-06-01T02:09:42.523Z,22.45
2018-06-01T02:12:08.458Z,22.32
2018-06-01T02:14:34.508Z,22.40
2018-06-01T02:17:00.447Z,22.74
2018-06-01T02:19:26.440Z,22.73
2018-06-01T02:21:52.376Z,22.51
2018-06-01T02:24:18.334Z,22.53
2018-06-01T02:26:44.348Z,22.27
2018-06-01T02:29:10.345Z,22.44
2018-06-01T02:31:36.301Z,22.76
2018-06-01T02:34:02.263Z,22.56
2018-06-01T02:36:28.209Z,22.57
2018-06-01T02:38:54.240Z,22.44
2018-06-01T02:41:20.195Z,22.06
2018-06-01T02:43:46.152Z,22.02
2018-06-01T02:46:12.127Z,22.12
2018-06-01T02:48:38.101Z,21.88
2018-06-01T02:51:04.033Z,21.65
2018-06-01T02:53:29.965Z,21.90
2018-06-01T02:55:55.938Z,22.44
2018-06-01T02:58:21.885Z,22.10
2018-06-01T03:00:48.525Z,21.82
2018-06-01T03:03:14.473Z,21.83
2018-06-01T03:05:40.477Z,21.82
2018-06-01T03:08:06.482Z,21.83
2018-06-01T03:10:32.403Z,21.69
2018-06-01T03:12:58.353Z,21.65
2018-06-01T03:15:24.304Z,21.49
2018-06-01T03:17:50.265Z,21.59
2018-06-01T03:20:16.323Z,21.62
2018-06-01T03:22:42.261Z,22.05
2018-06-01T03:25:08.210Z,21.65
2018-06-01T03:27:34.183Z,21.97
2018-06-01T03:30:00.119Z,22.03
2018-06-01T03:32:26.095Z,21.72
2018-06-01T03:34:52.035Z,21.63
2018-06-01T03:37:17.967Z,21.82
2018-06-01T03:39:43.926Z,21.74
2018-06-01T03:42:09.868Z,21.73
2018-06-01T03:44:35.831Z,21.93
2018-06-01T03:47:01.789Z,21.96
2018-06-01T03:49:27.754Z,22.11
2018-06-01T03:51:53.704Z,22.32
2018-06-01T03:54:19.659Z,22.48
2018-06-01T03:56:45.598Z,22.08
2018-06-01T03:59:11.577Z,22.02
2018-06-01T04:01:37.581Z,22.04
2018-06-01T04:04:03.532Z,22.42
2018-06-01T04:06:29.489Z,22.52
2018-06-01T04:08:55.445Z,22.24
2018-06-01T04:11:21.396Z,22.05
2018-06-01T04:13:47.415Z,22.23
2018-06-01T04:16:13.363Z,22.70
2018-06-01T04:18:39.333Z,22.63
2018-06-01T04:21:05.576Z,22.65
2018-06-01T04:23:31.516Z,22.70
2018-06-01T04:25:57.441Z,22.78
2018-06-01T04:28:23.374Z,23.03
2018-06-01T04:30:49.302Z,23.55
2018-06-01T04:33:15.243Z,23.67
2018-06-01T04:35:41.220Z,23.67
2018-06-01T04:38:07.181Z,24.48
2018-06-01T04:40:33.165Z,24.15
2018-06-01T04:42:59.101Z,24.36
2018-06-01T04:45:25.033Z,24.65
2018-06-01T04:47:50.978Z,24.68
2018-06-01T04:50:16.912Z,24.54
2018-06-01T04:52:42.863Z,24.37
2018-06-01T04:55:08.804Z,24.95
2018-06-01T04:57:34.725Z,24.62
2018-06-01T05:00:00.693Z,24.73
2018-06-01T05:02:26.628Z,24.51
2018-06-01T05:04:52.550Z,24.31
2018-06-01T05:07:18.522Z,24.09
2018-06-01T05:09:44.483Z,23.80
2018-06-01T05:12:10.430Z,24.00
2018-06-01T05:14:36.379Z,23.95
2018-06-01T05:17:02.390Z,23.91
2018-06-01T05:19:28.368Z,24.32
2018-06-01T05:21:54.335Z,24.20
2018-06-01T05:24:20.311Z,24.00
2018-06-01T05:26:46.266Z,24.06
2018-06-01T05:29:12.534Z,24.31
2018-06-01T05:31:38.463Z,24.48
2018-06-01T05:34:04.407Z,24.51
2018-06-01T05:36:30.412Z,24.66
2018-06-01T05:38:56.334Z,24.64
2018-06-01T05:41:22.327Z,24.91
2018-06-01T05:43:48.302Z,25.13
2018-06-01T05:46:14.233Z,25.38
2018-06-01T05:48:40.212Z,25.54
2018-06-01T05:51:06.156Z,25.56
2018-06-01T05:53:32.100Z,25.51
2018-06-01T05:55:58.098Z,25.77
2018-06-01T05:58:24.041Z,25.83
2018-06-01T06:00:49.980Z,25.61
2018-06-01T06:03:15.900Z,25.19
2018-06-01T06:05:41.855Z,25.09
2018-06-01T06:08:07.840Z,24.95
2018-06-01T06:10:33.773Z,25.22
2018-06-01T06:12:59.729Z,25.30
2018-06-01T06:15:25.655Z,25.41
2018-06-01T06:17:51.672Z,25.42
2018-06-01T06:20:17.598Z,25.44
2018-06-01T06:22:43.575Z,25.54
2018-06-01T06:25:09.552Z,25.65
2018-06-01T06:27:35.495Z,25.62
2018-06-01T06:30:01.453Z,25.64
2018-06-01T06:32:27.400Z,25.87
2018-06-01T06:34:53.333Z,26.90
2018-06-01T06:37:19.327Z,27.39
2018-06-01T06:39:45.281Z,27.78
2018-06-01T06:42:11.593Z,28.41
2018-06-01T06:44:37.564Z,28.78
2018-06-01T06:47:03.512Z,29.00
2018-06-01T06:49:29.480Z,29.22
2018-06-01T06:51:55.473Z,29.21
2018-06-01T06:54:21.419Z,29.39
2018-06-01T06:56:47.397Z,29.53
2018-06-01T06:59:13.348Z,29.82
2018-06-01T07:01:39.336Z,30.17
2018-06-01T07:04:05.312Z,30.41
2018-06-01T07:06:31.283Z,30.22
2018-06-01T07:08:57.227Z,30.29
2018-06-01T07:11:23.175Z,30.76
2018-06-01T07:13:49.147Z,30.90
2018-06-01T07:16:15.104Z,30.37
2018-06-01T07:18:41.044Z,30.32
2018-06-01T07:21:06.985Z,30.57
2018-06-01T07:23:33.011Z,31.12
2018-06-01T07:25:58.996Z,31.54
2018-06-01T07:28:25.036Z,31.69
2018-06-01T07:30:51.013Z,31.48
2018-06-01T07:33:16.967Z,31.79
2018-06-01T07:35:43.007Z,31.54
2018-06-01T07:38:08.969Z,31.36
2018-06-01T07:40:34.956Z,31.40
2018-06-01T07:43:00.924Z,31.62
2018-06-01T07:45:26.872Z,31.42
2018-06-01T07:47:52.837Z,31.29
2018-06-01T07:50:18.999Z,31.25
2018-06-01T07:52:44.941Z,30.94
2018-06-01T07:55:10.879Z,31.20
2018-06-01T07:57:36.945Z,31.05
2018-06-01T08:00:02.904Z,31.09
2018-06-01T08:02:28.862Z,30.97
2018-06-01T08:04:54.829Z,30.97
2018-06-01T08:07:20.791Z,30.97
2018-06-01T08:09:46.741Z,31.06
2018-06-01T08:12:12.680Z,30.92
2018-06-01T08:14:38.673Z,30.39
2018-06-01T08:17:04.564Z,30.64
2018-06-01T08:19:30.507Z,30.48
2018-06-01T08:21:56.572Z,30.45
2018-06-01T08:24:22.538Z,30.61
2018-06-01T08:26:48.478Z,30.36
2018-06-01T08:29:14.458Z,30.12
2018-06-01T08:31:40.423Z,30.00
2018-06-01T08:34:06.372Z,29.70
2018-06-01T08:36:32.305Z,29.67
2018-06-01T08:38:58.268Z,29.56
2018-06-01T08:41:24.234Z,29.28
2018-06-01T08:43:50.202Z,29.15
2018-06-01T08:46:16.151Z,29.11
2018-06-01T08:48:42.121Z,28.87
2018-06-01T08:51:08.070Z,28.89
2018-06-01T08:53:34.042Z,28.92
2018-06-01T08:55:59.982Z,28.69
2018-06-01T08:58:25.948Z,28.73
2018-06-01T09:00:51.880Z,28.64
2018-06-01T09:03:17.829Z,28.54
2018-06-01T09:05:43.790Z,28.63
2018-06-01T09:08:09.880Z,28.56
2018-06-01T09:10:35.818Z,28.56
2018-06-01T09:13:01.781Z,28.38
2018-06-01T09:15:27.827Z,28.42
2018-06-01T09:17:53.782Z,28.53
2018-06-01T09:20:19.786Z,28.39
2018-06-01T09:22:45.729Z,28.39
2018-06-01T09:25:11.695Z,28.24
2018-06-01T09:27:37.653Z,28.28
2018-06-01T09:30:03.604Z,28.25
2018-06-01T09:32:29.565Z,28.26
2018-06-01T09:34:55.553Z,28.32
2018-06-01T09:37:21.504Z,28.22
2018-06-01T09:39:47.458Z,28.24
2018-06-01T09:42:13.427Z,28.18
2018-06-01T09:44:39.396Z,28.15
2018-06-01T09:47:05.356Z,28.21
2018-06-01T09:49:31.364Z,28.21
2018-06-01T09:51:57.321Z,28.15
2018-06-01T09:54:23.335Z,28.13
2018-06-01T09:56:49.297Z,28.05
2018-06-01T09:59:15.255Z,28.07
2018-06-01T10:01:41.228Z,27.96
2018-06-01T10:04:07.195Z,27.96
2018-06-01T10:06:33.193Z,27.98
2018-06-01T10:08:59.165Z,27.96
2018-06-01T10:11:25.114Z,27.93
2018-06-01T10:13:51.083Z,27.97
2018-06-01T10:16:17.038Z,27.99
2018-06-01T10:18:43.054Z,27.94
2018-06-01T10:21:09.006Z,27.96
2018-06-01T10:23:34.962Z,27.93
2018-06-01T10:26:00.907Z,27.91
2018-06-01T10:28:26.878Z,27.89
2018-06-01T10:30:52.807Z,27.85
2018-06-01T10:33:18.752Z,27.90
2018-06-01T10:35:44.707Z,27.88
2018-06-01T10:38:10.661Z,27.94
2018-06-01T10:40:36.641Z,27.91
2018-06-01T10:43:02.608Z,27.88
2018-06-01T10:45:28.571Z,27.79
2018-06-01T10:47:54.526Z,27.75
2018-06-01T10:50:20.506Z,27.77
2018-06-01T10:52:46.552Z,27.77
2018-06-01T10:55:12.528Z,27.75
2018-06-01T10:57:38.476Z,27.76
2018-06-01T11:00:04.464Z,27.81
2018-06-01T11:02:30.467Z,27.82
2018-06-01T11:04:56.425Z,27.79
2018-06-01T11:07:22.348Z,27.75
2018-06-01T11:09:48.288Z,27.76
2018-06-01T11:12:14.245Z,27.77
2018-06-01T11:14:40.272Z,27.78
2018-06-01T11:17:06.296Z,27.70
2018-06-01T11:19:32.253Z,27.71
2018-06-01T11:21:58.173Z,27.66
2018-06-01T11:24:24.127Z,27.65
2018-06-01T11:26:50.095Z,27.65
2018-06-01T11:29:16.024Z,27.71
2018-06-01T11:31:41.986Z,27.60
2018-06-01T11:34:07.947Z,27.69
2018-06-01T11:36:33.891Z,27.81
2018-06-01T11:38:59.857Z,27.84
2018-06-01T11:41:25.804Z,27.70
2018-06-01T11:43:51.755Z,27.70
2018-06-01T11:46:17.722Z,27.73
2018-06-01T11:48:43.669Z,27.80
2018-06-01T11:51:09.610Z,27.82
2018-06-01T11:53:35.586Z,27.76
2018-06-01T11:56:01.526Z,27.88
2018-06-01T11:58:27.453Z,27.84
2018-06-01T12:00:53.429Z,27.84
2018-06-01T12:03:19.379Z,27.86
2018-06-01T12:05:45.409Z,27.75
2018-06-01T12:08:11.385Z,27.71
2018-06-01T12:10:37.360Z,27.73
2018-06-01T12:13:03.331Z,27.73
2018-06-01T12:15:29.294Z,27.70
2018-06-01T12:17:55.269Z,27.71
2018-06-01T12:20:21.229Z,27.79
2018-06-01T12:22:47.189Z,27.81
2018-06-01T12:25:13.142Z,27.78
2018-06-01T12:27:39.097Z,27.73
2018-06-01T12:30:05.070Z,27.75
2018-06-01T12:32:31.051Z,27.80
2018-06-01T12:34:57.043Z,27.82
2018-06-01T12:37:23.005Z,27.88
2018-06-01T12:39:48.954Z,27.84
2018-06-01T12:42:14.889Z,27.78
2018-06-01T12:44:40.838Z,27.78
2018-06-01T12:47:06.795Z,27.80
2018-06-01T12:49:32.761Z,27.82
2018-06-01T12:51:58.737Z,27.75
2018-06-01T12:54:24.686Z,27.76
2018-06-01T12:56:50.634Z,27.77
2018-06-01T12:59:16.629Z,27.74
2018-06-01T13:01:42.571Z,27.70
2018-06-01T13:04:08.541Z,27.57
2018-06-01T13:06:34.498Z,27.34
2018-06-01T13:09:00.550Z,27.31
2018-06-01T13:11:26.492Z,26.96
2018-06-01T13:13:52.432Z,26.98
2018-06-01T13:16:18.349Z,27.05
2018-06-01T13:18:44.289Z,27.04
2018-06-01T13:21:10.214Z,26.83
2018-06-01T13:23:36.152Z,26.09
2018-06-01T13:26:02.129Z,25.80
2018-06-01T13:28:28.129Z,25.09
2018-06-01T13:30:54.071Z,24.55
2018-06-01T13:33:20.299Z,24.29
2018-06-01T13:35:46.283Z,24.80
2018-06-01T13:38:12.225Z,24.35
2018-06-01T13:40:38.200Z,24.17
2018-06-01T13:43:04.168Z,24.50
2018-06-01T13:45:30.135Z,24.52
2018-06-01T13:47:56.154Z,23.99
2018-06-01T13:50:22.244Z,23.70
2018-06-01T13:52:48.204Z,24.23
2018-06-01T13:55:14.182Z,23.72
2018-06-01T13:57:40.235Z,23.77
2018-06-01T14:00:06.178Z,23.68
2018-06-01T14:02:32.154Z,23.86
2018-06-01T14:04:58.104Z,24.01
2018-06-01T14:07:24.050Z,24.21
2018-06-01T14:09:50.000Z,24.50
2018-06-01T14:12:16.146Z,23.94
2018-06-01T14:14:42.102Z,24.54
2018-06-01T14:17:08.072Z,24.71
2018-06-01T14:19:34.036Z,24.65
2018-06-01T14:21:59.996Z,24.69
2018-06-01T14:24:25.951Z,24.30
2018-06-01T14:26:51.905Z,24.28
2018-06-01T14:29:17.854Z,23.22
2018-06-01T14:31:43.811Z,23.61
2018-06-01T14:34:09.774Z,23.23
2018-06-01T14:36:35.744Z,23.22
2018-06-01T14:39:01.708Z,23.16
2018-06-01T14:41:27.701Z,23.63
2018-06-01T14:43:53.659Z,24.01
2018-06-01T14:46:19.627Z,24.28
2018-06-01T14:48:45.811Z,24.30
2018-06-01T14:51:11.777Z,23.76
2018-06-01T14:53:37.719Z,23.85
2018-06-01T14:56:03.700Z,24.02
2018-06-01T14:58:29.657Z,23.95
2018-06-01T15:00:55.645Z,23.78
2018-06-01T15:03:21.605Z,23.74
2018-06-01T15:05:47.558Z,23.41
2018-06-01T15:08:13.567Z,23.73
2018-06-01T15:10:39.485Z,23.55
2018-06-01T15:13:05.409Z,23.34
2018-06-01T15:15:31.380Z,23.04
2018-06-01T15:17:57.348Z,22.65
2018-06-01T15:20:23.639Z,23.19
2018-06-01T15:22:49.556Z,23.13
2018-06-01T15:25:15.497Z,23.61
2018-06-01T15:27:41.435Z,23.54
2018-06-01T15:30:07.366Z,23.21
2018-06-01T15:32:33.349Z,22.86
2018-06-01T15:34:59.572Z,22.73
2018-06-01T15:37:25.516Z,22.72
2018-06-01T15:39:51.469Z,22.74
2018-06-01T15:42:17.432Z,22.56
2018-06-01T15:44:43.388Z,22.31
2018-06-01T15:47:09.759Z,22.46
2018-06-01T15:49:35.755Z,22.27
2018-06-01T15:52:01.746Z,22.12
2018-06-01T15:54:27.683Z,22.13
2018-06-01T15:56:53.844Z,22.74
2018-06-01T15:59:19.810Z,22.89
2018-06-01T16:01:45.752Z,22.31
2018-06-01T16:04:11.719Z,22.27
2018-06-01T16:06:37.699Z,22.14
2018-06-01T16:09:03.693Z,22.19
2018-06-01T16:11:29.652Z,21.88
2018-06-01T16:13:55.626Z,22.10
2018-06-01T16:16:21.560Z,21.94
2018-06-01T16:18:47.550Z,21.76
2018-06-01T16:21:13.577Z,22.12
2018-06-01T16:23:39.539Z,22.22
2018-06-01T16:26:05.488Z,22.49
2018-06-01T16:28:31.441Z,22.78
2018-06-01T16:30:57.388Z,22.47
2018-06-01T16:33:23.338Z,22.47
2018-06-01T16:35:49.302Z,22.35
2018-06-01T16:38:15.268Z,21.90
2018-06-01T16:40:41.242Z,21.86
2018-06-01T16:43:07.173Z,22.38
2018-06-01T16:45:33.118Z,22.60
2018-06-01T16:47:59.075Z,22.25
2018-06-01T16:50:25.113Z,22.11
2018-06-01T16:52:51.079Z,22.56
2018-06-01T16:55:17.103Z,22.44
2018-06-01T16:57:43.048Z,22.88
2018-06-01T17:00:09.006Z,22.57
2018-06-01T17:02:34.958Z,22.44
2018-06-01T17:05:00.943Z,22.10
2018-06-01T17:07:26.881Z,22.49
2018-06-01T17:09:52.867Z,22.56
2018-06-01T17:12:18.931Z,22.31
2018-06-01T17:14:44.946Z,22.87
2018-06-01T17:17:11.028Z,23.11
2018-06-01T17:19:37.049Z,22.84
2018-06-01T17:22:04.163Z,22.54
2018-06-01T17:24:30.382Z,22.62
2018-06-01T17:26:56.435Z,22.43
2018-06-01T17:29:22.478Z,22.79
2018-06-01T17:31:48.576Z,22.64
2018-06-01T17:34:14.573Z,22.42
2018-06-01T17:36:40.693Z,22.52
2018-06-01T17:39:06.701Z,22.40
2018-06-01T17:41:32.676Z,22.34
2018-06-01T17:43:58.716Z,22.52
2018-06-01T17:46:24.754Z,22.89
2018-06-01T17:48:50.849Z,23.15
2018-06-01T17:51:16.804Z,23.11
2018-06-01T17:53:42.783Z,23.10
2018-06-01T17:56:08.708Z,22.63
2018-06-01T17:58:34.702Z,22.54
2018-06-01T18:01:00.660Z,22.65
2018-06-01T18:03:26.665Z,22.46
2018-06-01T18:05:52.623Z,22.39
2018-06-01T18:08:18.572Z,22.38
2018-06-01T18:10:44.528Z,22.75
2018-06-01T18:13:10.479Z,22.90
2018-06-01T18:15:36.413Z,22.38
2018-06-01T18:18:02.362Z,22.36
2018-06-01T18:20:28.327Z,22.45
2018-06-01T18:22:54.270Z,22.47
2018-06-01T18:25:20.386Z,22.63
2018-06-01T18:27:46.338Z,22.51
2018-06-01T18:30:12.315Z,22.60
2018-06-01T18:32:38.275Z,22.60
2018-06-01T18:35:04.223Z,22.61
2018-06-01T18:37:30.171Z,22.69
2018-06-01T18:39:56.124Z,22.72
2018-06-01T18:42:22.061Z,22.85
2018-06-01T18:44:48.017Z,22.74
2018-06-01T18:47:13.973Z,23.04
2018-06-01T18:49:39.913Z,22.71
2018-06-01T18:52:05.871Z,22.87
2018-06-01T18:54:31.841Z,22.78
2018-06-01T18:56:57.784Z,22.65
2018-06-01T18:59:23.739Z,22.88
2018-06-01T19:01:49.701Z,22.80
2018-06-01T19:04:15.651Z,22.62
2018-06-01T19:06:41.626Z,22.50
2018-06-01T19:09:07.609Z,22.70
2018-06-01T19:11:33.553Z,22.76
2018-06-01T19:13:59.524Z,22.87
2018-06-01T19:16:25.467Z,22.88
2018-06-01T19:18:51.469Z,22.76
2018-06-01T19:21:19.305Z,22.72
2018-06-01T19:23:45.297Z,22.68
2018-06-01T19:26:11.232Z,22.42
2018-06-01T19:28:37.158Z,22.65
2018-06-01T19:31:03.107Z,22.79
2018-06-01T19:36:01.556Z,23.14
2018-06-01T19:38:27.491Z,23.03
2018-06-01T19:40:53.464Z,23.21
2018-06-01T19:43:19.482Z,23.28
2018-06-01T19:45:45.436Z,23.12
2018-06-01T19:48:11.380Z,23.21
2018-06-01T19:50:37.497Z,22.56
2018-06-01T19:53:05.397Z,22.47
2018-06-01T19:55:31.397Z,22.52
2018-06-01T19:57:57.336Z,22.42
2018-06-01T20:00:23.288Z,22.57
2018-06-01T20:02:49.259Z,22.55
2018-06-01T20:05:15.220Z,22.47
2018-06-01T20:07:41.259Z,22.86
2018-06-01T20:10:07.273Z,22.98
2018-06-01T20:12:33.241Z,22.71
2018-06-01T20:14:59.207Z,22.40
2018-06-01T20:17:26.248Z,22.90
2018-06-01T20:19:52.399Z,22.71
2018-06-01T20:22:18.506Z,22.47
2018-06-01T20:24:44.494Z,22.81
2018-06-01T20:27:10.425Z,22.70
2018-06-01T20:29:36.405Z,22.93
2018-06-01T20:32:02.368Z,23.33
2018-06-01T20:34:28.323Z,23.27
2018-06-01T20:36:54.277Z,23.21
2018-06-01T20:39:20.213Z,22.85
2018-06-01T20:41:46.237Z,22.50
2018-06-01T20:44:12.180Z,22.87
2018-06-01T20:46:38.506Z,23.22
2018-06-01T20:49:04.465Z,23.08
2018-06-01T20:51:30.490Z,22.84
2018-06-01T20:53:57.608Z,22.53
2018-06-01T20:56:23.555Z,22.36
2018-06-01T20:58:49.534Z,22.29
2018-06-01T21:01:15.532Z,22.44
2018-06-01T21:03:41.530Z,22.35
2018-06-01T21:06:07.524Z,22.07
2018-06-01T21:08:33.457Z,22.25
2018-06-01T21:10:59.443Z,22.28
2018-06-01T21:13:25.481Z,22.24
2018-06-01T21:15:51.424Z,22.16
2018-06-01T21:18:17.380Z,22.22
2018-06-01T21:20:43.467Z,22.28
2018-06-01T21:23:09.428Z,22.35
2018-06-01T21:25:35.364Z,22.28
2018-06-01T21:28:01.346Z,22.17
2018-06-01T21:30:27.335Z,22.20
2018-06-01T21:32:53.281Z,22.17
2018-06-01T21:35:19.260Z,22.08
2018-06-01T21:37:45.223Z,22.36
2018-06-01T21:40:11.201Z,22.07
2018-06-01T21:42:37.175Z,22.19
2018-06-01T21:45:03.143Z,22.43
2018-06-01T21:47:29.165Z,22.30
2018-06-01T21:49:55.110Z,22.18
2018-06-01T21:52:21.078Z,22.31
2018-06-01T21:54:47.049Z,22.38
2018-06-01T21:57:13.024Z,22.28
2018-06-01T21:59:39.004Z,22.52
2018-06-01T22:02:05.034Z,22.35
2018-06-01T22:04:30.999Z,22.38
2018-06-01T22:06:56.921Z,22.44
2018-06-01T22:09:22.884Z,22.29
2018-06-01T22:11:48.829Z,21.94
2018-06-01T22:14:14.782Z,22.03
2018-06-01T22:16:40.750Z,22.21
2018-06-01T22:19:06.800Z,22.00
2018-06-01T22:21:32.759Z,22.18
2018-06-01T22:23:58.743Z,22.28
2018-06-01T22:26:24.694Z,22.29
2018-06-01T22:28:50.628Z,22.16
2018-06-01T22:31:16.610Z,22.47
2018-06-01T22:33:42.566Z,22.09
2018-06-01T22:36:08.521Z,22.44
2018-06-01T22:38:34.481Z,22.08
2018-06-01T22:41:00.451Z,22.06
2018-06-01T22:43:26.410Z,22.05
2018-06-01T22:45:52.361Z,22.35
2018-06-01T22:48:18.299Z,22.30
2018-06-01T22:50:44.270Z,22.25
2018-06-01T22:53:10.208Z,22.76
2018-06-01T22:55:36.180Z,22.53
2018-06-01T22:58:02.148Z,22.10
2018-06-01T23:00:28.093Z,22.19
2018-06-01T23:02:54.053Z,22.07
2018-06-01T23:05:19.985Z,22.06
2018-06-01T23:07:45.909Z,22.02
2018-06-01T23:10:11.848Z,21.99
2018-06-01T23:12:37.786Z,21.89
2018-06-01T23:15:03.747Z,21.95
2018-06-01T23:17:29.726Z,22.05
2018-06-01T23:19:55.713Z,22.18
2018-06-01T23:22:21.656Z,21.80
2018-06-01T23:24:47.596Z,21.72
2018-06-01T23:27:13.618Z,21.85
2018-06-01T23:29:39.553Z,21.84
2018-06-01T23:32:05.519Z,21.94
2018-06-01T23:34:31.476Z,21.79
2018-06-01T23:36:57.461Z,21.87
2018-06-01T23:39:23.415Z,21.86
2018-06-01T23:41:49.368Z,21.94
2018-06-01T23:44:15.341Z,22.12
2018-06-01T23:46:41.365Z,22.37
2018-06-01T23:49:07.313Z,22.48
2018-06-01T23:51:33.305Z,22.35
2018-06-01T23:53:59.252Z,22.59
2018-06-01T23:56:25.290Z,22.46
2018-06-01T23:58:51.267Z,22.78
